Time;durP1;ratioP1;P1;durP2;ratioP2;P2;SDS_P1;SDS_P2;PMS_P1;PMS_P2;Temp;Humidity;BMP_temperature;BMP_pressure;BME280_temperature;BME280_humidity;BME280_pressure;Samples;Min_cycle;Max_cycle;Signal;HPM_P1;HPM_P2
2023/01/26 00:01:08;;;;;;;0.00;0.00;;;1.20;99.90;;;;;;5091395;28;20172;-67
2023/01/26 00:03:33;;;;;;;0.00;0.00;;;1.20;99.90;;;;;;5091830;28;20175;-66
2023/01/26 00:06:03;;;;;;;0.00;0.00;;;1.20;99.90;;;;;;5091387;28;20192;-66
2023/01/26 00:08:29;;;;;;;0.10;0.10;;;1.20;99.90;;;;;;5091830;28;20537;-66
2023/01/26 00:10:54;;;;;;;0.00;0.00;;;1.30;99.90;;;;;;5091188;28;20195;-65
2023/01/26 00:13:21;;;;;;;0.27;0.27;;;1.30;99.90;;;;;;5091294;28;20227;-66
2023/01/26 00:15:47;;;;;;;0.00;0.00;;;1.30;99.90;;;;;;5091484;28;20195;-66
2023/01/26 00:18:13;;;;;;;0.30;0.30;;;1.30;99.90;;;;;;5091191;28;20741;-66
2023/01/26 00:20:38;;;;;;;0.00;0.00;;;1.30;99.90;;;;;;5091389;28;20184;-67
2023/01/26 00:23:04;;;;;;;0.00;0.00;;;1.30;99.90;;;;;;5091568;28;20190;-66
2023/01/26 00:25:29;;;;;;;0.00;0.00;;;1.30;99.90;;;;;;5091361;28;20234;-66
2023/01/26 00:27:56;;;;;;;0.20;0.20;;;1.40;99.90;;;;;;5091253;28;20580;-66
2023/01/26 00:30:22;;;;;;;0.00;0.00;;;1.30;99.90;;;;;;5091598;28;20183;-66
2023/01/26 00:32:47;;;;;;;0.10;0.10;;;1.40;99.90;;;;;;5090976;28;20211;-66
2023/01/26 00:35:13;;;;;;;0.00;0.00;;;1.30;99.90;;;;;;5091223;28;20176;-66
2023/01/26 00:37:41;;;;;;;0.00;0.00;;;1.30;99.90;;;;;;5091474;28;20259;-66
2023/01/26 00:40:08;;;;;;;0.00;0.00;;;1.30;99.90;;;;;;5091164;28;20172;-67
2023/01/26 00:42:34;;;;;;;0.20;0.20;;;1.30;99.90;;;;;;5091583;28;20184;-66
2023/01/26 00:44:59;;;;;;;0.10;0.10;;;1.30;99.90;;;;;;5091161;28;20180;-67
2023/01/26 00:47:25;;;;;;;0.05;0.05;;;1.30;99.90;;;;;;5091094;28;20173;-66
2023/01/26 00:49:51;;;;;;;0.00;0.00;;;1.30;99.90;;;;;;5091278;28;20183;-66
2023/01/26 00:52:16;;;;;;;0.00;0.00;;;1.30;99.90;;;;;;5091081;28;20257;-66
2023/01/26 00:54:42;;;;;;;0.00;0.00;;;1.30;99.90;;;;;;5073196;28;20271;-65
2023/01/26 00:57:08;;;;;;;0.00;0.00;;;1.30;99.90;;;;;;5091436;28;20207;-67
2023/01/26 00:59:33;;;;;;;0.00;0.00;;;1.30;99.90;;;;;;5093473;28;20199;-67
2023/01/26 01:02:01;;;;;;;0.00;0.00;;;1.20;99.90;;;;;;5094112;28;20678;-66
2023/01/26 01:04:28;;;;;;;0.00;0.00;;;1.30;99.90;;;;;;5092918;28;20529;-67
2023/01/26 01:06:54;;;;;;;0.00;0.00;;;1.20;99.90;;;;;;5094365;28;20179;-66
2023/01/26 01:09:20;;;;;;;0.00;0.00;;;1.20;99.90;;;;;;5094355;28;20172;-65
2023/01/26 01:11:45;;;;;;;0.00;0.00;;;1.20;99.90;;;;;;5094662;28;20259;-66
2023/01/26 01:14:12;;;;;;;0.07;0.07;;;1.30;99.90;;;;;;5093973;28;20202;-65
2023/01/26 01:16:38;;;;;;;0.00;0.00;;;1.20;99.90;;;;;;5094729;28;20172;-65
2023/01/26 01:19:04;;;;;;;0.13;0.13;;;1.20;99.90;;;;;;5084284;28;20188;-66
2023/01/26 01:21:31;;;;;;;0.00;0.00;;;1.20;99.90;;;;;;5094864;28;20176;-65
2023/01/26 01:23:57;;;;;;;0.10;0.10;;;1.20;99.90;;;;;;5094318;28;20180;-65
2023/01/26 01:26:22;;;;;;;0.38;0.38;;;1.20;99.90;;;;;;5094868;28;20236;-66
2023/01/26 01:28:52;;;;;;;0.30;0.30;;;1.20;99.90;;;;;;5094127;28;20172;-65
2023/01/26 01:31:17;;;;;;;0.00;0.00;;;1.20;99.90;;;;;;5093382;28;20511;-66
2023/01/26 01:33:43;;;;;;;0.10;0.10;;;1.20;99.90;;;;;;5094003;28;20268;-66
2023/01/26 01:36:12;;;;;;;0.00;0.00;;;1.20;99.90;;;;;;5093617;28;20184;-66
2023/01/26 01:38:37;;;;;;;0.00;0.00;;;1.20;99.90;;;;;;5094590;28;20172;-65
2023/01/26 01:41:03;;;;;;;0.00;0.00;;;1.20;99.90;;;;;;5094080;28;20178;-66
2023/01/26 01:43:29;;;;;;;0.27;0.27;;;1.10;99.90;;;;;;5094180;28;20165;-65
2023/01/26 01:45:55;;;;;;;0.10;0.10;;;1.10;99.90;;;;;;5093898;28;20176;-65
2023/01/26 01:48:53;;;;;;;0.13;0.13;;;1.10;99.90;;;;;;5093993;28;20191;-66
2023/01/26 01:51:29;;;;;;;0.00;0.00;;;1.20;99.90;;;;;;5068384;28;20204;-65
2023/01/26 01:53:57;;;;;;;0.00;0.00;;;1.20;99.90;;;;;;5074831;28;20188;-65
2023/01/26 01:56:27;;;;;;;0.23;0.10;;;1.20;99.90;;;;;;5094177;28;20172;-65
2023/01/26 01:58:56;;;;;;;0.22;0.17;;;1.20;99.90;;;;;;5093857;28;20184;-64
2023/01/26 02:01:21;;;;;;;0.00;0.00;;;1.20;99.90;;;;;;5085028;28;20184;-65
2023/01/26 02:03:50;;;;;;;0.20;0.20;;;1.20;99.90;;;;;;5093249;28;20233;-64
2023/01/26 02:06:35;;;;;;;0.10;0.10;;;1.20;99.90;;;;;;5093572;28;20176;-65
2023/01/26 02:09:02;;;;;;;0.00;0.00;;;1.30;99.90;;;;;;5092520;28;20184;-65
2023/01/26 02:11:33;;;;;;;0.10;0.10;;;1.30;99.90;;;;;;5093063;28;20214;-65
2023/01/26 02:14:03;;;;;;;0.00;0.00;;;1.30;99.90;;;;;;5093346;28;20296;-65
2023/01/26 02:16:29;;;;;;;0.70;0.63;;;1.30;99.90;;;;;;5091723;28;20183;-65
2023/01/26 02:18:54;;;;;;;0.00;0.00;;;1.20;99.90;;;;;;5092298;28;20255;-64
2023/01/26 02:21:22;;;;;;;1.08;0.60;;;1.20;99.90;;;;;;5093925;28;20182;-65
2023/01/26 02:24:05;;;;;;;0.00;0.00;;;1.10;99.90;;;;;;5092983;28;20207;-64
2023/01/26 02:26:33;;;;;;;0.03;0.03;;;1.10;99.90;;;;;;5074607;28;20181;-65
2023/01/26 02:29:00;;;;;;;0.65;0.65;;;1.10;99.90;;;;;;5092738;28;20188;-65
2023/01/26 02:31:27;;;;;;;0.03;0.03;;;1.10;99.90;;;;;;5090456;28;20188;-65
2023/01/26 02:33:53;;;;;;;0.20;0.20;;;1.10;99.90;;;;;;5091983;28;20195;-64
2023/01/26 02:36:24;;;;;;;0.00;0.00;;;1.10;99.90;;;;;;5092959;28;20180;-64
2023/01/26 02:38:59;;;;;;;0.00;0.00;;;1.00;99.90;;;;;;5092364;28;20845;-64
2023/01/26 02:44:12;;;;;;;0.30;0.30;;;1.00;99.90;;;;;;5092694;28;20241;-64
2023/01/26 02:46:37;;;;;;;0.20;0.20;;;1.00;99.90;;;;;;5091921;28;20192;-63
2023/01/26 02:51:47;;;;;;;0.00;0.00;;;0.90;99.90;;;;;;5087638;28;20246;-65
2023/01/26 02:55:21;;;;;;;0.00;0.00;;;0.90;99.90;;;;;;5092718;28;20215;-65
2023/01/26 02:56:58;;;;;;;0.00;0.00;;;0.90;99.90;;;;;;5091984;28;20187;-64
2023/01/26 02:59:23;;;;;;;0.10;0.10;;;0.90;99.90;;;;;;5090152;28;20172;-64
2023/01/26 03:01:51;;;;;;;0.20;0.20;;;0.90;99.90;;;;;;5091943;28;20272;-64
2023/01/26 03:04:16;;;;;;;0.17;0.17;;;0.90;99.90;;;;;;5091795;28;20631;-64
2023/01/26 03:06:42;;;;;;;0.00;0.00;;;0.90;99.90;;;;;;5091466;28;20227;-64
2023/01/26 03:09:07;;;;;;;0.13;0.13;;;0.80;99.90;;;;;;5092611;28;20176;-65
2023/01/26 03:11:40;;;;;;;0.10;0.10;;;0.80;99.90;;;;;;5091044;28;20224;-65
2023/01/26 03:14:10;;;;;;;0.87;0.87;;;0.80;99.90;;;;;;5091797;28;20191;-65
2023/01/26 03:16:37;;;;;;;0.00;0.00;;;0.90;99.90;;;;;;5092086;28;20180;-65
2023/01/26 03:29:42;;;;;;;0.00;0.00;;;0.80;99.90;;;;;;5091936;28;20585;-65
2023/01/26 03:32:08;;;;;;;0.00;0.00;;;0.80;99.90;;;;;;5090198;28;20216;-65
2023/01/26 03:34:33;;;;;;;0.00;0.00;;;0.80;99.90;;;;;;5091491;28;20565;-65
2023/01/26 03:36:59;;;;;;;0.00;0.00;;;0.80;99.90;;;;;;5091839;28;20191;-66
2023/01/26 03:56:20;;;;;;;0.03;0.03;;;0.90;99.90;;;;;;5091712;28;20483;-64
2023/01/26 03:58:51;;;;;;;0.00;0.00;;;0.90;99.90;;;;;;5091020;28;20631;-65
2023/01/26 04:01:26;;;;;;;0.00;0.00;;;0.90;99.90;;;;;;5088306;28;20638;-65
2023/01/26 04:09:24;;;;;;;0.80;0.80;;;1.00;99.90;;;;;;5092022;28;20217;-65
2023/01/26 04:11:49;;;;;;;0.00;0.00;;;1.00;99.90;;;;;;5090655;28;20232;-65
2023/01/26 04:22:30;;;;;;;0.00;0.00;;;1.00;99.90;;;;;;5087828;28;20179;-66
2023/01/26 04:24:58;;;;;;;0.00;0.00;;;1.00;99.90;;;;;;5090676;28;20184;-63
2023/01/26 04:27:24;;;;;;;0.80;0.80;;;1.00;99.90;;;;;;5091191;28;20183;-64
2023/01/26 04:29:49;;;;;;;0.00;0.00;;;0.90;99.90;;;;;;5091235;28;20270;-65
2023/01/26 04:32:15;;;;;;;0.00;0.00;;;0.80;99.90;;;;;;5090410;28;20223;-64
2023/01/26 04:34:40;;;;;;;0.00;0.00;;;0.80;99.90;;;;;;5094810;28;20187;-65
2023/01/26 04:37:08;;;;;;;0.00;0.00;;;0.80;99.90;;;;;;5094981;28;20186;-64
2023/01/26 04:39:33;;;;;;;0.10;0.10;;;0.80;99.90;;;;;;5095200;28;20180;-67
2023/01/26 04:41:59;;;;;;;0.00;0.00;;;0.80;99.90;;;;;;5095086;28;20516;-64
2023/01/26 04:44:24;;;;;;;0.00;0.00;;;0.80;99.90;;;;;;5094919;28;20180;-65
2023/01/26 04:46:50;;;;;;;0.00;0.00;;;0.70;99.90;;;;;;5095128;28;20646;-71
2023/01/26 04:49:15;;;;;;;2.80;0.30;;;0.80;99.90;;;;;;5094884;28;20214;-65
2023/01/26 04:51:41;;;;;;;0.00;0.00;;;0.80;99.90;;;;;;5095104;28;20270;-65
2023/01/26 04:54:07;;;;;;;0.10;0.10;;;0.80;99.90;;;;;;5094946;28;20654;-65
2023/01/26 04:56:34;;;;;;;0.00;0.00;;;0.90;99.90;;;;;;5095045;28;20176;-65
2023/01/26 04:59:02;;;;;;;0.00;0.00;;;0.90;99.90;;;;;;5093539;28;20229;-66
2023/01/26 05:01:28;;;;;;;0.10;0.10;;;0.90;99.90;;;;;;5094155;28;20187;-69
2023/01/26 05:03:54;;;;;;;0.30;0.30;;;0.90;99.90;;;;;;5094151;28;20172;-69
2023/01/26 05:06:19;;;;;;;0.00;0.00;;;1.10;99.90;;;;;;5094264;28;20200;-68
2023/01/26 05:08:45;;;;;;;0.00;0.00;;;1.10;99.90;;;;;;5094476;28;20184;-68
2023/01/26 05:11:11;;;;;;;0.00;0.00;;;1.10;99.90;;;;;;5094180;28;20836;-68
2023/01/26 05:13:36;;;;;;;0.63;0.63;;;1.10;99.90;;;;;;5094057;28;20281;-69
2023/01/26 05:16:03;;;;;;;0.20;0.20;;;1.10;99.90;;;;;;5094429;28;20173;-68
2023/01/26 05:18:29;;;;;;;0.00;0.00;;;1.10;99.90;;;;;;5093627;28;20180;-69
2023/01/26 05:20:55;;;;;;;0.10;0.10;;;1.00;99.90;;;;;;5093818;28;20702;-64
2023/01/26 05:23:21;;;;;;;0.00;0.00;;;1.00;99.90;;;;;;5094106;28;20189;-64
2023/01/26 05:25:47;;;;;;;0.10;0.10;;;1.30;99.90;;;;;;5094047;28;20176;-70
2023/01/26 05:28:12;;;;;;;0.15;0.15;;;3.60;99.90;;;;;;5094424;28;20283;-67
2023/01/26 05:30:38;;;;;;;0.00;0.00;;;4.60;99.90;;;;;;5094391;28;20225;-66
2023/01/26 05:33:05;;;;;;;0.00;0.00;;;4.40;99.90;;;;;;5094095;28;20222;-67
2023/01/26 05:35:31;;;;;;;0.00;0.00;;;4.00;99.90;;;;;;5092599;28;20570;-67
2023/01/26 05:37:56;;;;;;;0.03;0.03;;;3.50;99.90;;;;;;5094112;28;20231;-67
2023/01/26 05:40:23;;;;;;;0.00;0.00;;;3.10;99.90;;;;;;5094110;28;20563;-66
2023/01/26 05:42:49;;;;;;;0.05;0.05;;;2.70;99.90;;;;;;5072298;28;20255;-66
2023/01/26 05:45:15;;;;;;;0.28;0.28;;;2.40;99.90;;;;;;5089164;28;20275;-67
2023/01/26 05:47:43;;;;;;;0.00;0.00;;;2.10;99.90;;;;;;5093847;28;20715;-67
2023/01/26 05:50:09;;;;;;;0.10;0.05;;;1.90;99.90;;;;;;5093825;28;20260;-66
2023/01/26 05:52:35;;;;;;;0.00;0.00;;;1.80;99.90;;;;;;5092600;28;20203;-67
2023/01/26 05:55:01;;;;;;;0.00;0.00;;;1.70;99.90;;;;;;5093344;28;20278;-67
2023/01/26 05:57:26;;;;;;;0.00;0.00;;;1.50;99.90;;;;;;5093598;28;20168;-67
2023/01/26 05:59:52;;;;;;;0.65;0.65;;;1.40;99.90;;;;;;5092561;28;20176;-66
2023/01/26 06:02:18;;;;;;;0.00;0.00;;;1.30;99.90;;;;;;5094019;28;20179;-67
2023/01/26 06:04:43;;;;;;;0.25;0.17;;;1.30;99.90;;;;;;5093586;28;20185;-66
2023/01/26 06:07:09;;;;;;;0.00;0.00;;;1.20;99.90;;;;;;5093579;28;20211;-67
2023/01/26 06:09:35;;;;;;;0.13;0.13;;;1.10;99.90;;;;;;5093429;28;20176;-68
2023/01/26 06:12:01;;;;;;;0.00;0.00;;;1.10;99.90;;;;;;5093087;28;20580;-67
2023/01/26 06:14:26;;;;;;;0.10;0.10;;;1.10;99.90;;;;;;5093571;28;20177;-67
2023/01/26 06:16:53;;;;;;;0.00;0.00;;;1.00;99.90;;;;;;5093604;28;20229;-67
2023/01/26 06:19:19;;;;;;;0.10;0.10;;;1.00;99.90;;;;;;5093782;28;20583;-67
2023/01/26 06:21:44;;;;;;;0.00;0.00;;;1.00;99.90;;;;;;5093222;28;20281;-67
2023/01/26 06:24:10;;;;;;;0.07;0.07;;;1.00;99.90;;;;;;5093309;28;20309;-66
2023/01/26 06:26:35;;;;;;;0.00;0.00;;;1.00;99.90;;;;;;5093465;28;20178;-63
2023/01/26 06:29:01;;;;;;;0.47;0.38;;;2.10;99.90;;;;;;5093214;28;20233;-67
2023/01/26 06:31:28;;;;;;;0.63;0.63;;;3.00;99.90;;;;;;5091837;28;20184;-66
2023/01/26 06:33:54;;;;;;;0.00;0.00;;;3.00;99.90;;;;;;5092924;28;20243;-66
2023/01/26 06:36:20;;;;;;;0.00;0.00;;;2.90;99.90;;;;;;5093202;28;20172;-66
2023/01/26 06:38:50;;;;;;;0.43;0.43;;;2.60;99.90;;;;;;5091692;28;20283;-67
2023/01/26 06:41:16;;;;;;;0.57;0.57;;;2.40;99.90;;;;;;5093240;28;20180;-66
2023/01/26 06:43:48;;;;;;;0.00;0.00;;;2.20;99.90;;;;;;5092859;28;20677;-66
2023/01/26 06:46:14;;;;;;;0.00;0.00;;;1.90;99.90;;;;;;5093037;28;20181;-66
2023/01/26 06:48:40;;;;;;;0.00;0.00;;;1.70;99.90;;;;;;5092986;28;20176;-66
2023/01/26 06:51:14;;;;;;;0.00;0.00;;;1.50;99.90;;;;;;5093031;28;20198;-66
2023/01/26 06:53:42;;;;;;;0.00;0.00;;;1.40;99.90;;;;;;5092456;28;20203;-66
2023/01/26 06:56:08;;;;;;;0.00;0.00;;;1.30;99.90;;;;;;5092104;28;20252;-66
2023/01/26 06:58:33;;;;;;;0.00;0.00;;;1.20;99.90;;;;;;5092840;28;20280;-66
2023/01/26 07:00:59;;;;;;;0.00;0.00;;;1.20;99.90;;;;;;5092588;28;20190;-65
2023/01/26 07:03:25;;;;;;;0.30;0.30;;;1.10;99.90;;;;;;5092729;28;20274;-66
2023/01/26 07:05:51;;;;;;;0.00;0.00;;;1.10;99.90;;;;;;5092114;28;20249;-66
2023/01/26 07:08:16;;;;;;;0.00;0.00;;;1.10;99.90;;;;;;5092605;28;20616;-66
2023/01/26 07:10:42;;;;;;;0.10;0.10;;;1.10;99.90;;;;;;5092240;28;20176;-66
2023/01/26 07:13:07;;;;;;;0.00;0.00;;;1.10;99.90;;;;;;5091912;28;20281;-67
2023/01/26 07:15:33;;;;;;;0.10;0.10;;;1.10;99.90;;;;;;5092589;28;20253;-66
2023/01/26 07:18:00;;;;;;;0.00;0.00;;;1.10;99.90;;;;;;5091840;28;20263;-67
2023/01/26 07:20:26;;;;;;;0.00;0.00;;;1.10;99.90;;;;;;5092194;28;20180;-67
2023/01/26 07:22:51;;;;;;;0.10;0.10;;;1.10;99.90;;;;;;5092301;28;20250;-67
2023/01/26 07:25:18;;;;;;;0.50;0.50;;;1.10;99.90;;;;;;5092357;28;20187;-67
2023/01/26 07:27:43;;;;;;;0.10;0.10;;;1.10;99.90;;;;;;5092110;28;20180;-67
2023/01/26 07:30:13;;;;;;;0.73;0.73;;;1.10;99.90;;;;;;5091982;28;20679;-67
2023/01/26 07:32:38;;;;;;;0.00;0.00;;;1.10;99.90;;;;;;5092160;28;20246;-67
2023/01/26 07:35:04;;;;;;;0.27;0.27;;;1.10;99.90;;;;;;5090830;28;20650;-67
2023/01/26 07:37:30;;;;;;;0.00;0.00;;;1.10;99.90;;;;;;5092050;28;20206;-67
2023/01/26 07:39:56;;;;;;;0.00;0.00;;;1.10;99.90;;;;;;5091869;28;20172;-67
2023/01/26 07:42:21;;;;;;;0.00;0.00;;;1.10;99.90;;;;;;5092099;28;20183;-67
2023/01/26 07:44:47;;;;;;;0.00;0.00;;;1.00;99.90;;;;;;5091836;28;20187;-66
2023/01/26 07:47:13;;;;;;;0.00;0.00;;;1.00;99.90;;;;;;5091882;28;20188;-67
2023/01/26 07:49:39;;;;;;;0.00;0.00;;;1.00;99.90;;;;;;5091908;28;20180;-67
2023/01/26 07:52:05;;;;;;;0.13;0.13;;;1.00;99.90;;;;;;5091561;28;20296;-67
2023/01/26 07:54:31;;;;;;;0.50;0.50;;;1.00;99.90;;;;;;5091821;28;20634;-67
2023/01/26 07:56:56;;;;;;;0.00;0.00;;;1.00;99.90;;;;;;5091368;28;20279;-67
2023/01/26 07:59:22;;;;;;;0.10;0.10;;;1.10;99.90;;;;;;5091744;28;20276;-66
2023/01/26 08:01:49;;;;;;;0.00;0.00;;;1.10;99.90;;;;;;5091577;28;20187;-67
2023/01/26 08:04:15;;;;;;;0.15;0.15;;;1.10;99.90;;;;;;5091451;28;20229;-67
2023/01/26 08:06:40;;;;;;;0.00;0.00;;;1.10;99.90;;;;;;5091554;28;20184;-67
2023/01/26 08:09:06;;;;;;;0.00;0.00;;;1.10;99.90;;;;;;5091473;28;20187;-67
2023/01/26 08:11:31;;;;;;;0.30;0.30;;;1.10;99.90;;;;;;5091562;28;21535;-67
2023/01/26 08:13:57;;;;;;;0.00;0.00;;;1.10;99.90;;;;;;5091225;28;20223;-67
2023/01/26 08:16:22;;;;;;;0.00;0.00;;;1.10;99.90;;;;;;5075627;28;20184;-66
2023/01/26 08:18:48;;;;;;;0.00;0.00;;;1.10;99.90;;;;;;5091367;28;20187;-67
2023/01/26 08:21:15;;;;;;;0.00;0.00;;;1.00;99.90;;;;;;5091620;28;20184;-67
2023/01/26 08:23:41;;;;;;;0.00;0.00;;;1.10;99.90;;;;;;5091579;28;20184;-66
2023/01/26 08:26:10;;;;;;;0.07;0.07;;;1.10;99.90;;;;;;5089955;28;20179;-67
2023/01/26 08:28:36;;;;;;;0.10;0.10;;;1.10;99.90;;;;;;5091576;28;20534;-69
2023/01/26 08:31:06;;;;;;;0.00;0.00;;;1.10;99.90;;;;;;5091885;28;20267;-68
2023/01/26 08:33:32;;;;;;;0.00;0.00;;;1.00;99.90;;;;;;5091431;28;20215;-68
2023/01/26 08:36:03;;;;;;;0.00;0.00;;;1.10;99.90;;;;;;5091332;28;20176;-65
2023/01/26 08:38:30;;;;;;;0.10;0.10;;;1.00;99.90;;;;;;5075679;28;20191;-67
2023/01/26 08:40:56;;;;;;;0.00;0.00;;;1.00;99.90;;;;;;5091382;28;20176;-67
2023/01/26 08:43:22;;;;;;;0.07;0.07;;;1.00;99.90;;;;;;5091290;28;20556;-66
2023/01/26 08:45:47;;;;;;;0.10;0.10;;;1.00;99.90;;;;;;5091064;28;20180;-66
2023/01/26 08:48:13;;;;;;;0.00;0.00;;;1.00;99.90;;;;;;5091204;28;20563;-65
2023/01/26 08:50:38;;;;;;;0.10;0.10;;;1.00;99.90;;;;;;5091271;28;20634;-66
2023/01/26 08:53:04;;;;;;;0.43;0.37;;;1.00;99.90;;;;;;5091170;28;20212;-66
2023/01/26 08:55:31;;;;;;;0.00;0.00;;;0.90;99.90;;;;;;5091174;28;20696;-65
2023/01/26 08:57:57;;;;;;;0.40;0.27;;;0.90;99.90;;;;;;5091266;28;20207;-66
2023/01/26 09:00:23;;;;;;;0.00;0.00;;;0.90;99.90;;;;;;5090718;28;20241;-67
2023/01/26 09:02:49;;;;;;;0.00;0.00;;;1.00;99.90;;;;;;5091112;28;20193;-67
2023/01/26 09:05:15;;;;;;;0.00;0.00;;;1.00;99.90;;;;;;5090711;28;20304;-67
2023/01/26 09:07:41;;;;;;;0.00;0.00;;;1.00;99.90;;;;;;5091111;28;20188;-66
2023/01/26 09:10:07;;;;;;;0.00;0.00;;;1.00;99.90;;;;;;5090797;28;20184;-67
2023/01/26 09:12:33;;;;;;;0.00;0.00;;;1.00;99.90;;;;;;5090582;28;20216;-66
2023/01/26 09:14:58;;;;;;;0.00;0.00;;;1.00;99.90;;;;;;5091047;28;20191;-66
2023/01/26 09:17:24;;;;;;;0.00;0.00;;;1.10;99.90;;;;;;5091071;28;20183;-66
2023/01/26 09:19:49;;;;;;;0.00;0.00;;;1.10;99.90;;;;;;5091891;28;20207;-66
2023/01/26 09:22:15;;;;;;;0.38;0.38;;;1.10;99.90;;;;;;5094521;28;20263;-66
2023/01/26 09:24:40;;;;;;;0.00;0.00;;;1.10;99.90;;;;;;5094688;28;20541;-66
2023/01/26 09:27:06;;;;;;;0.00;0.00;;;1.10;99.90;;;;;;5094531;28;20594;-67
2023/01/26 09:29:31;;;;;;;0.00;0.00;;;1.10;99.90;;;;;;5094579;28;20203;-67
2023/01/26 09:31:57;;;;;;;0.00;0.00;;;1.10;99.90;;;;;;5094438;28;20188;-66
2023/01/26 09:34:24;;;;;;;0.20;0.10;;;1.10;99.90;;;;;;5094253;28;20210;-67
2023/01/26 09:36:49;;;;;;;0.20;0.20;;;1.20;99.90;;;;;;5094294;28;20253;-66
2023/01/26 09:39:15;;;;;;;0.00;0.00;;;1.20;99.90;;;;;;5093255;28;20614;-67
2023/01/26 09:42:03;;;;;;;0.15;0.15;;;1.10;99.90;;;;;;5094418;28;20180;-66
2023/01/26 09:44:36;;;;;;;0.30;0.30;;;1.10;99.90;;;;;;5091762;28;20176;-67
2023/01/26 09:47:12;;;;;;;0.05;0.05;;;1.10;99.90;;;;;;5093994;28;20267;-67
2023/01/26 09:49:44;;;;;;;0.00;0.00;;;1.10;99.90;;;;;;5094432;28;20180;-66
2023/01/26 09:52:17;;;;;;;0.00;0.00;;;1.10;99.90;;;;;;5094113;28;20302;-66
2023/01/26 09:54:58;;;;;;;0.00;0.00;;;1.10;99.90;;;;;;5077852;28;20180;-66
2023/01/26 09:57:36;;;;;;;0.20;0.20;;;1.10;99.90;;;;;;5094104;28;20180;-67
2023/01/26 10:00:08;;;;;;;0.00;0.00;;;1.10;99.90;;;;;;5093789;28;20180;-67
2023/01/26 10:02:55;;;;;;;0.00;0.00;;;1.10;99.90;;;;;;5093631;28;20525;-67
2023/01/26 10:05:46;;;;;;;0.00;0.00;;;1.20;99.90;;;;;;5093490;28;20176;-69
2023/01/26 10:08:15;;;;;;;0.10;0.10;;;1.20;99.90;;;;;;5079123;28;20192;-63
2023/01/26 10:10:47;;;;;;;0.00;0.00;;;1.20;99.90;;;;;;5093553;28;20192;-67
2023/01/26 10:13:15;;;;;;;2.28;2.17;;;2.80;99.90;;;;;;5093383;28;20223;-67
2023/01/26 10:15:43;;;;;;;0.30;0.30;;;3.20;99.90;;;;;;5093234;28;20215;-67
2023/01/26 10:18:22;;;;;;;0.10;0.10;;;3.00;99.90;;;;;;5093746;28;20168;-67
2023/01/26 10:20:54;;;;;;;0.20;0.20;;;2.70;99.90;;;;;;5093442;28;20665;-67
2023/01/26 10:23:31;;;;;;;0.00;0.00;;;2.50;99.90;;;;;;5093106;28;20233;-67
2023/01/26 10:26:14;;;;;;;0.00;0.00;;;2.30;99.90;;;;;;5093593;28;20237;-67
2023/01/26 10:28:45;;;;;;;0.68;0.57;;;2.10;99.90;;;;;;5091680;28;20626;-66
2023/01/26 10:31:17;;;;;;;0.43;0.43;;;2.00;99.90;;;;;;5092724;28;20233;-67
2023/01/26 10:33:50;;;;;;;0.10;0.10;;;1.90;99.90;;;;;;5093411;28;20682;-66
2023/01/26 10:36:15;;;;;;;0.00;0.00;;;1.80;99.90;;;;;;5093331;28;20176;-66
2023/01/26 10:38:43;;;;;;;0.73;0.73;;;1.70;99.90;;;;;;5091719;28;20710;-67
2023/01/26 10:41:15;;;;;;;0.10;0.10;;;1.70;99.90;;;;;;5093115;28;20649;-67
2023/01/26 10:43:48;;;;;;;0.00;0.00;;;1.60;99.90;;;;;;5093136;28;20228;-67
2023/01/26 10:46:41;;;;;;;0.10;0.10;;;1.60;99.90;;;;;;5093126;28;20187;-67
2023/01/26 10:49:10;;;;;;;0.35;0.35;;;1.50;99.90;;;;;;5078384;28;20234;-67
2023/01/26 10:51:41;;;;;;;0.20;0.20;;;1.50;99.90;;;;;;5092971;28;20185;-67
2023/01/26 10:54:26;;;;;;;0.10;0.10;;;1.50;99.90;;;;;;5092553;28;20226;-67
2023/01/26 10:56:56;;;;;;;0.28;0.28;;;1.50;99.90;;;;;;5093026;28;20184;-67
2023/01/26 10:59:42;;;;;;;0.10;0.10;;;1.60;99.90;;;;;;5092765;28;20188;-67
2023/01/26 11:02:10;;;;;;;0.00;0.00;;;1.60;99.90;;;;;;5092749;28;20194;-67
2023/01/26 11:04:40;;;;;;;0.07;0.07;;;1.60;99.90;;;;;;5092378;28;20184;-67
2023/01/26 11:07:27;;;;;;;0.00;0.00;;;1.50;99.90;;;;;;5092653;28;20207;-68
2023/01/26 11:09:54;;;;;;;0.00;0.00;;;1.50;99.90;;;;;;5092518;28;20191;-67
2023/01/26 11:12:21;;;;;;;0.30;0.30;;;1.50;99.90;;;;;;5092394;28;20251;-67
2023/01/26 11:15:01;;;;;;;0.45;0.35;;;1.50;99.90;;;;;;5092131;28;20173;-67
2023/01/26 11:17:36;;;;;;;0.03;0.03;;;1.50;99.90;;;;;;5092452;28;20176;-67
2023/01/26 11:20:26;;;;;;;1.27;1.23;;;1.50;99.90;;;;;;5092329;28;20583;-67
2023/01/26 11:22:57;;;;;;;0.95;0.93;;;1.50;99.90;;;;;;5092342;28;20564;-67
2023/01/26 11:25:37;;;;;;;0.67;0.67;;;1.50;99.90;;;;;;5092363;28;20176;-67
2023/01/26 11:28:21;;;;;;;1.70;0.87;;;1.60;99.90;;;;;;5092274;28;20222;-67
2023/01/26 11:31:15;;;;;;;1.73;1.63;;;1.60;99.90;;;;;;5091908;28;20176;-68
2023/01/26 11:33:54;;;;;;;0.93;0.40;;;1.50;99.90;;;;;;5091839;28;20207;-66
2023/01/26 11:36:27;;;;;;;0.20;0.20;;;1.60;99.90;;;;;;5091961;28;20208;-63
2023/01/26 11:39:20;;;;;;;0.00;0.00;;;2.30;99.90;;;;;;5091873;28;20168;-67
2023/01/26 11:42:19;;;;;;;0.00;0.00;;;2.50;99.90;;;;;;5080163;28;20186;-67
2023/01/26 11:44:57;;;;;;;0.20;0.20;;;2.50;99.90;;;;;;5091850;28;20183;-66
2023/01/26 11:47:35;;;;;;;1.10;1.00;;;2.30;99.90;;;;;;5076972;28;20180;-67
2023/01/26 11:50:18;;;;;;;0.13;0.13;;;2.20;99.90;;;;;;5091776;28;20184;-67
2023/01/26 11:53:04;;;;;;;0.08;0.08;;;2.10;99.90;;;;;;5091897;28;20226;-66
2023/01/26 11:55:46;;;;;;;0.00;0.00;;;2.00;99.90;;;;;;5077876;28;20700;-67
2023/01/26 11:58:30;;;;;;;0.57;0.57;;;1.90;99.90;;;;;;5091965;28;20188;-67
2023/01/26 12:00:59;;;;;;;0.25;0.20;;;1.80;99.90;;;;;;5091506;28;20172;-66
2023/01/26 12:03:50;;;;;;;0.10;0.10;;;1.70;99.90;;;;;;5091709;28;20184;-67
2023/01/26 12:06:18;;;;;;;0.20;0.20;;;1.70;99.90;;;;;;5091752;28;20374;-68
2023/01/26 12:08:48;;;;;;;0.00;0.00;;;1.70;99.90;;;;;;5091688;28;20187;-67
2023/01/26 12:11:21;;;;;;;0.10;0.10;;;1.70;99.90;;;;;;5091450;28;20187;-66
2023/01/26 12:13:55;;;;;;;0.00;0.00;;;1.60;99.90;;;;;;5091431;28;20212;-68
2023/01/26 12:16:41;;;;;;;0.15;0.15;;;1.60;99.90;;;;;;5091727;28;20179;-68
2023/01/26 12:19:16;;;;;;;0.00;0.00;;;1.60;99.90;;;;;;5091349;28;20186;-67
2023/01/26 12:21:44;;;;;;;0.03;0.03;;;1.60;99.90;;;;;;5091431;28;20211;-66
2023/01/26 12:24:32;;;;;;;0.03;0.03;;;1.60;99.90;;;;;;5091631;28;20185;-67
2023/01/26 12:27:01;;;;;;;0.17;0.17;;;1.60;99.90;;;;;;5091265;28;20184;-67
2023/01/26 12:29:37;;;;;;;0.00;0.00;;;1.60;99.90;;;;;;5091543;28;20310;-67
2023/01/26 12:32:09;;;;;;;0.00;0.00;;;1.60;99.90;;;;;;5091299;28;20186;-68
2023/01/26 12:34:34;;;;;;;0.03;0.03;;;1.60;99.90;;;;;;5091376;28;20180;-70
2023/01/26 12:37:19;;;;;;;0.00;0.00;;;1.60;99.90;;;;;;5091780;28;20182;-67
2023/01/26 12:39:53;;;;;;;0.00;0.00;;;1.50;99.90;;;;;;5091104;28;20541;-64
2023/01/26 12:42:42;;;;;;;0.47;0.47;;;1.60;99.90;;;;;;5091033;28;20180;-65
2023/01/26 12:45:17;;;;;;;1.00;0.65;;;1.70;99.90;;;;;;5090973;28;20679;-66
2023/01/26 12:48:05;;;;;;;0.00;0.00;;;1.70;99.90;;;;;;5091493;28;20218;-66
2023/01/26 12:50:55;;;;;;;0.00;0.00;;;1.70;99.90;;;;;;5091459;28;20176;-65
2023/01/26 12:53:31;;;;;;;0.10;0.10;;;1.60;99.90;;;;;;5091044;28;20216;-65
2023/01/26 12:56:12;;;;;;;0.00;0.00;;;1.60;99.90;;;;;;5094043;28;20233;-66
2023/01/26 12:58:44;;;;;;;0.10;0.10;;;1.60;99.90;;;;;;5095341;28;20187;-65
2023/01/26 13:01:14;;;;;;;0.20;0.10;;;1.50;99.90;;;;;;5094855;28;20538;-66
2023/01/26 13:03:44;;;;;;;0.00;0.00;;;1.50;99.90;;;;;;5095283;28;20180;-65
2023/01/26 13:06:13;;;;;;;0.00;0.00;;;1.50;99.90;;;;;;5095189;28;20192;-65
2023/01/26 13:09:03;;;;;;;0.25;0.25;;;1.40;99.90;;;;;;5095088;28;20176;-65
2023/01/26 13:11:42;;;;;;;0.00;0.00;;;1.40;99.90;;;;;;5094624;28;20184;-65
2023/01/26 13:14:41;;;;;;;0.00;0.00;;;1.30;99.90;;;;;;5094706;28;20662;-65
2023/01/26 13:17:16;;;;;;;0.00;0.00;;;1.30;99.90;;;;;;5094365;28;20179;-66
2023/01/26 13:19:41;;;;;;;0.03;0.03;;;1.30;99.90;;;;;;5094883;28;20578;-65
2023/01/26 13:22:22;;;;;;;0.10;0.10;;;1.20;99.90;;;;;;5094751;28;20175;-65
2023/01/26 13:24:55;;;;;;;0.00;0.00;;;1.10;99.90;;;;;;5094547;28;20579;-69
2023/01/26 13:27:53;;;;;;;0.00;0.00;;;1.10;99.90;;;;;;5094380;28;20190;-65
2023/01/26 13:30:24;;;;;;;0.00;0.00;;;1.10;99.90;;;;;;5093898;28;20176;-65
2023/01/26 13:32:53;;;;;;;0.00;0.00;;;1.20;99.90;;;;;;5094379;28;20617;-65
2023/01/26 13:35:25;;;;;;;0.00;0.00;;;1.20;99.90;;;;;;5093876;28;20169;-64
2023/01/26 13:38:15;;;;;;;0.00;0.00;;;1.30;99.90;;;;;;5079057;28;20176;-64
2023/01/26 13:40:45;;;;;;;0.10;0.10;;;1.30;99.90;;;;;;5094324;28;20272;-64
2023/01/26 13:43:34;;;;;;;0.30;0.30;;;1.30;99.90;;;;;;5094251;28;20199;-64
2023/01/26 13:46:08;;;;;;;0.13;0.13;;;1.30;99.90;;;;;;5080213;28;20190;-64
2023/01/26 13:48:48;;;;;;;0.10;0.10;;;1.30;99.90;;;;;;5094139;28;20175;-65
2023/01/26 13:51:33;;;;;;;2.67;1.47;;;1.30;99.90;;;;;;5094191;28;20541;-64
2023/01/26 13:54:13;;;;;;;2.33;1.73;;;1.30;99.90;;;;;;5079583;28;20735;-64
2023/01/26 13:56:40;;;;;;;1.23;1.13;;;1.30;99.90;;;;;;5093769;28;20190;-64
2023/01/26 13:59:11;;;;;;;0.40;0.40;;;1.30;99.90;;;;;;5093881;28;20187;-64